sensor_id;sensor_type;location;lat;lon;timestamp;P1;durP1;ratioP1;P2;durP2;ratioP2
44694;SDS011;32845;59.422;17.930;2023-02-01T00:04:04;15.25;;;5.20;;
44694;SDS011;32845;59.422;17.930;2023-02-01T00:08:34;15.27;;;3.85;;
44694;SDS011;32845;59.422;17.930;2023-02-01T00:13:05;30.02;;;6.22;;
44694;SDS011;32845;59.422;17.930;2023-02-01T00:17:36;15.13;;;3.80;;
44694;SDS011;32845;59.422;17.930;2023-02-01T00:22:07;19.85;;;3.45;;
44694;SDS011;32845;59.422;17.930;2023-02-01T00:26:41;15.48;;;3.38;;
44694;SDS011;32845;59.422;17.930;2023-02-01T00:31:14;16.50;;;2.67;;
44694;SDS011;32845;59.422;17.930;2023-02-01T00:35:45;13.88;;;2.92;;
44694;SDS011;32845;59.422;17.930;2023-02-01T00:40:15;16.50;;;3.58;;
44694;SDS011;32845;59.422;17.930;2023-02-01T00:44:46;9.73;;;2.83;;
44694;SDS011;32845;59.422;17.930;2023-02-01T00:49:17;10.38;;;2.80;;
44694;SDS011;32845;59.422;17.930;2023-02-01T00:53:47;15.05;;;2.97;;
44694;SDS011;32845;59.422;17.930;2023-02-01T00:58:19;12.23;;;3.05;;
44694;SDS011;32845;59.422;17.930;2023-02-01T01:02:49;9.45;;;2.85;;
44694;SDS011;32845;59.422;17.930;2023-02-01T01:07:20;12.82;;;3.20;;
44694;SDS011;32845;59.422;17.930;2023-02-01T01:11:51;8.40;;;2.83;;
44694;SDS011;32845;59.422;17.930;2023-02-01T01:16:23;14.00;;;3.10;;
44694;SDS011;32845;59.422;17.930;2023-02-01T01:20:56;9.75;;;2.97;;
44694;SDS011;32845;59.422;17.930;2023-02-01T01:25:27;11.93;;;2.95;;
44694;SDS011;32845;59.422;17.930;2023-02-01T01:29:58;10.65;;;2.35;;
44694;SDS011;32845;59.422;17.930;2023-02-01T01:34:28;7.35;;;2.17;;
44694;SDS011;32845;59.422;17.930;2023-02-01T01:38:59;9.63;;;3.38;;
44694;SDS011;32845;59.422;17.930;2023-02-01T01:48:25;12.00;;;2.28;;
44694;SDS011;32845;59.422;17.930;2023-02-01T01:53:00;10.63;;;2.53;;
44694;SDS011;32845;59.422;17.930;2023-02-01T01:57:36;8.32;;;1.98;;
44694;SDS011;32845;59.422;17.930;2023-02-01T02:02:09;10.65;;;2.15;;
44694;SDS011;32845;59.422;17.930;2023-02-01T02:11:41;10.82;;;2.90;;
44694;SDS011;32845;59.422;17.930;2023-02-01T02:16:24;11.25;;;2.92;;
44694;SDS011;32845;59.422;17.930;2023-02-01T02:35:30;9.35;;;2.60;;
44694;SDS011;32845;59.422;17.930;2023-02-01T02:40:45;6.68;;;1.95;;
44694;SDS011;32845;59.422;17.930;2023-02-01T02:51:07;8.38;;;2.15;;
44694;SDS011;32845;59.422;17.930;2023-02-01T03:00:51;8.35;;;2.15;;
44694;SDS011;32845;59.422;17.930;2023-02-01T03:05:44;13.52;;;2.95;;
44694;SDS011;32845;59.422;17.930;2023-02-01T03:15:03;10.18;;;2.15;;
44694;SDS011;32845;59.422;17.930;2023-02-01T03:19:43;10.70;;;2.40;;
44694;SDS011;32845;59.422;17.930;2023-02-01T03:24:24;5.25;;;1.80;;
44694;SDS011;32845;59.422;17.930;2023-02-01T03:29:08;10.95;;;2.45;;
44694;SDS011;32845;59.422;17.930;2023-02-01T03:33:42;7.43;;;1.90;;
44694;SDS011;32845;59.422;17.930;2023-02-01T03:38:17;5.60;;;1.90;;
44694;SDS011;32845;59.422;17.930;2023-02-01T03:43:02;6.97;;;2.15;;
44694;SDS011;32845;59.422;17.930;2023-02-01T03:47:39;10.18;;;2.33;;
44694;SDS011;32845;59.422;17.930;2023-02-01T03:52:13;9.95;;;2.08;;
44694;SDS011;32845;59.422;17.930;2023-02-01T03:56:48;8.50;;;2.22;;
44694;SDS011;32845;59.422;17.930;2023-02-01T04:01:21;8.98;;;2.03;;
44694;SDS011;32845;59.422;17.930;2023-02-01T04:05:52;9.25;;;2.22;;
44694;SDS011;32845;59.422;17.930;2023-02-01T04:10:24;10.73;;;1.75;;
44694;SDS011;32845;59.422;17.930;2023-02-01T04:14:54;11.25;;;2.80;;
44694;SDS011;32845;59.422;17.930;2023-02-01T04:19:25;5.80;;;1.88;;
44694;SDS011;32845;59.422;17.930;2023-02-01T04:23:56;10.90;;;2.25;;
44694;SDS011;32845;59.422;17.930;2023-02-01T04:28:27;10.00;;;2.50;;
44694;SDS011;32845;59.422;17.930;2023-02-01T04:32:58;5.80;;;2.05;;
44694;SDS011;32845;59.422;17.930;2023-02-01T04:37:29;11.60;;;2.50;;
44694;SDS011;32845;59.422;17.930;2023-02-01T04:41:59;6.65;;;2.13;;
44694;SDS011;32845;59.422;17.930;2023-02-01T04:46:30;8.30;;;1.90;;
44694;SDS011;32845;59.422;17.930;2023-02-01T04:51:01;4.85;;;2.05;;
44694;SDS011;32845;59.422;17.930;2023-02-01T04:55:32;8.95;;;1.77;;
44694;SDS011;32845;59.422;17.930;2023-02-01T05:00:03;3.58;;;1.83;;
44694;SDS011;32845;59.422;17.930;2023-02-01T05:04:34;6.30;;;2.08;;
44694;SDS011;32845;59.422;17.930;2023-02-01T05:09:05;10.43;;;2.53;;
44694;SDS011;32845;59.422;17.930;2023-02-01T05:13:35;9.60;;;2.08;;
44694;SDS011;32845;59.422;17.930;2023-02-01T05:18:18;13.38;;;1.83;;
44694;SDS011;32845;59.422;17.930;2023-02-01T05:22:48;5.80;;;1.88;;
44694;SDS011;32845;59.422;17.930;2023-02-01T05:27:19;12.07;;;2.30;;
44694;SDS011;32845;59.422;17.930;2023-02-01T05:31:50;8.32;;;1.88;;
44694;SDS011;32845;59.422;17.930;2023-02-01T05:36:21;5.22;;;2.08;;
44694;SDS011;32845;59.422;17.930;2023-02-01T05:40:51;6.25;;;2.00;;
44694;SDS011;32845;59.422;17.930;2023-02-01T05:45:22;9.40;;;2.20;;
44694;SDS011;32845;59.422;17.930;2023-02-01T05:49:53;11.90;;;2.00;;
44694;SDS011;32845;59.422;17.930;2023-02-01T05:54:23;6.22;;;2.15;;
44694;SDS011;32845;59.422;17.930;2023-02-01T05:58:54;10.32;;;1.80;;
44694;SDS011;32845;59.422;17.930;2023-02-01T06:03:25;10.30;;;1.95;;
44694;SDS011;32845;59.422;17.930;2023-02-01T06:07:56;10.77;;;2.33;;
44694;SDS011;32845;59.422;17.930;2023-02-01T06:12:27;7.93;;;2.20;;
44694;SDS011;32845;59.422;17.930;2023-02-01T06:16:58;8.95;;;2.42;;
44694;SDS011;32845;59.422;17.930;2023-02-01T06:21:28;7.43;;;2.30;;
44694;SDS011;32845;59.422;17.930;2023-02-01T06:26:00;10.52;;;2.05;;
44694;SDS011;32845;59.422;17.930;2023-02-01T06:30:35;3.33;;;1.63;;
44694;SDS011;32845;59.422;17.930;2023-02-01T06:35:07;8.40;;;1.88;;
44694;SDS011;32845;59.422;17.930;2023-02-01T06:39:41;12.75;;;2.30;;
44694;SDS011;32845;59.422;17.930;2023-02-01T06:44:11;9.20;;;2.50;;
44694;SDS011;32845;59.422;17.930;2023-02-01T06:48:42;14.25;;;2.75;;
44694;SDS011;32845;59.422;17.930;2023-02-01T06:53:13;9.50;;;2.50;;
44694;SDS011;32845;59.422;17.930;2023-02-01T06:57:44;15.20;;;2.67;;
44694;SDS011;32845;59.422;17.930;2023-02-01T07:02:14;19.90;;;2.83;;
44694;SDS011;32845;59.422;17.930;2023-02-01T07:06:45;13.73;;;2.40;;
44694;SDS011;32845;59.422;17.930;2023-02-01T07:11:16;10.93;;;2.22;;
44694;SDS011;32845;59.422;17.930;2023-02-01T07:15:48;13.15;;;2.25;;
44694;SDS011;32845;59.422;17.930;2023-02-01T07:20:19;12.60;;;2.80;;
44694;SDS011;32845;59.422;17.930;2023-02-01T07:24:49;20.25;;;2.53;;
44694;SDS011;32845;59.422;17.930;2023-02-01T07:29:20;11.35;;;2.25;;
44694;SDS011;32845;59.422;17.930;2023-02-01T07:33:51;7.82;;;2.20;;
44694;SDS011;32845;59.422;17.930;2023-02-01T07:38:21;9.25;;;2.47;;
44694;SDS011;32845;59.422;17.930;2023-02-01T07:42:56;10.55;;;2.08;;
44694;SDS011;32845;59.422;17.930;2023-02-01T07:47:28;11.75;;;2.05;;
44694;SDS011;32845;59.422;17.930;2023-02-01T07:51:58;14.45;;;2.15;;
44694;SDS011;32845;59.422;17.930;2023-02-01T07:56:29;8.00;;;2.08;;
44694;SDS011;32845;59.422;17.930;2023-02-01T08:01:00;9.10;;;2.08;;
44694;SDS011;32845;59.422;17.930;2023-02-01T08:05:53;12.82;;;2.22;;
44694;SDS011;32845;59.422;17.930;2023-02-01T08:10:24;7.60;;;2.08;;
44694;SDS011;32845;59.422;17.930;2023-02-01T08:14:55;6.55;;;1.85;;
44694;SDS011;32845;59.422;17.930;2023-02-01T08:19:26;6.65;;;2.35;;
44694;SDS011;32845;59.422;17.930;2023-02-01T08:23:57;13.18;;;2.72;;
44694;SDS011;32845;59.422;17.930;2023-02-01T08:28:27;9.20;;;2.25;;
44694;SDS011;32845;59.422;17.930;2023-02-01T08:32:58;7.22;;;2.45;;
44694;SDS011;32845;59.422;17.930;2023-02-01T08:37:29;19.98;;;2.47;;
44694;SDS011;32845;59.422;17.930;2023-02-01T08:42:00;7.57;;;2.10;;
44694;SDS011;32845;59.422;17.930;2023-02-01T08:46:59;5.70;;;2.00;;
44694;SDS011;32845;59.422;17.930;2023-02-01T08:51:30;12.38;;;1.88;;
44694;SDS011;32845;59.422;17.930;2023-02-01T08:56:01;6.07;;;2.13;;
44694;SDS011;32845;59.422;17.930;2023-02-01T09:00:32;4.68;;;2.13;;
44694;SDS011;32845;59.422;17.930;2023-02-01T09:05:03;12.40;;;2.97;;
44694;SDS011;32845;59.422;17.930;2023-02-01T09:09:35;4.60;;;2.28;;
44694;SDS011;32845;59.422;17.930;2023-02-01T09:14:06;9.55;;;2.40;;
44694;SDS011;32845;59.422;17.930;2023-02-01T09:18:37;9.95;;;2.13;;
44694;SDS011;32845;59.422;17.930;2023-02-01T09:23:08;11.43;;;2.30;;
44694;SDS011;32845;59.422;17.930;2023-02-01T09:27:38;8.25;;;2.00;;
44694;SDS011;32845;59.422;17.930;2023-02-01T09:32:09;13.13;;;2.40;;
44694;SDS011;32845;59.422;17.930;2023-02-01T09:36:40;14.43;;;2.20;;
44694;SDS011;32845;59.422;17.930;2023-02-01T09:46:21;12.95;;;2.20;;
44694;SDS011;32845;59.422;17.930;2023-02-01T09:50:56;10.40;;;1.70;;
44694;SDS011;32845;59.422;17.930;2023-02-01T09:55:45;4.40;;;1.92;;
44694;SDS011;32845;59.422;17.930;2023-02-01T10:00:20;14.50;;;2.97;;
44694;SDS011;32845;59.422;17.930;2023-02-01T10:04:57;9.20;;;2.58;;
44694;SDS011;32845;59.422;17.930;2023-02-01T10:28:33;7.32;;;2.00;;
44694;SDS011;32845;59.422;17.930;2023-02-01T10:33:17;7.18;;;2.08;;
44694;SDS011;32845;59.422;17.930;2023-02-01T10:37:51;6.63;;;2.10;;
44694;SDS011;32845;59.422;17.930;2023-02-01T10:42:26;9.25;;;2.13;;
44694;SDS011;32845;59.422;17.930;2023-02-01T10:46:58;4.53;;;1.67;;
44694;SDS011;32845;59.422;17.930;2023-02-01T10:56:46;10.50;;;2.40;;
44694;SDS011;32845;59.422;17.930;2023-02-01T11:01:24;11.40;;;1.95;;
44694;SDS011;32845;59.422;17.930;2023-02-01T11:06:13;9.20;;;2.45;;
44694;SDS011;32845;59.422;17.930;2023-02-01T11:10:57;5.00;;;2.17;;
44694;SDS011;32845;59.422;17.930;2023-02-01T11:15:30;12.85;;;2.10;;
44694;SDS011;32845;59.422;17.930;2023-02-01T11:20:04;11.93;;;2.15;;
44694;SDS011;32845;59.422;17.930;2023-02-01T11:24:55;12.20;;;1.90;;
44694;SDS011;32845;59.422;17.930;2023-02-01T11:29:29;16.45;;;1.95;;
44694;SDS011;32845;59.422;17.930;2023-02-01T11:34:36;9.35;;;2.00;;
44694;SDS011;32845;59.422;17.930;2023-02-01T11:43:50;8.85;;;1.85;;
44694;SDS011;32845;59.422;17.930;2023-02-01T11:48:30;6.80;;;1.70;;
44694;SDS011;32845;59.422;17.930;2023-02-01T12:02:41;10.75;;;1.90;;
44694;SDS011;32845;59.422;17.930;2023-02-01T12:12:17;8.98;;;1.90;;
44694;SDS011;32845;59.422;17.930;2023-02-01T12:26:46;13.13;;;1.92;;
44694;SDS011;32845;59.422;17.930;2023-02-01T12:46:12;6.10;;;1.40;;
44694;SDS011;32845;59.422;17.930;2023-02-01T12:50:50;6.22;;;1.38;;
44694;SDS011;32845;59.422;17.930;2023-02-01T12:55:24;4.90;;;1.20;;
44694;SDS011;32845;59.422;17.930;2023-02-01T13:05:17;9.75;;;1.40;;
44694;SDS011;32845;59.422;17.930;2023-02-01T13:10:00;2.38;;;0.80;;
44694;SDS011;32845;59.422;17.930;2023-02-01T13:14:55;3.10;;;0.93;;
44694;SDS011;32845;59.422;17.930;2023-02-01T13:24:09;4.57;;;1.17;;
44694;SDS011;32845;59.422;17.930;2023-02-01T13:29:02;9.93;;;2.30;;
44694;SDS011;32845;59.422;17.930;2023-02-01T13:38:34;9.15;;;2.97;;
44694;SDS011;32845;59.422;17.930;2023-02-01T13:43:38;7.00;;;1.27;;
44694;SDS011;32845;59.422;17.930;2023-02-01T13:48:19;1.40;;;0.93;;
44694;SDS011;32845;59.422;17.930;2023-02-01T13:53:15;3.47;;;0.90;;
44694;SDS011;32845;59.422;17.930;2023-02-01T13:57:48;5.07;;;1.02;;
44694;SDS011;32845;59.422;17.930;2023-02-01T14:07:19;4.25;;;0.88;;
44694;SDS011;32845;59.422;17.930;2023-02-01T14:11:52;3.33;;;0.73;;
44694;SDS011;32845;59.422;17.930;2023-02-01T14:16:24;9.98;;;0.90;;
44694;SDS011;32845;59.422;17.930;2023-02-01T14:21:10;8.80;;;0.80;;
44694;SDS011;32845;59.422;17.930;2023-02-01T14:26:02;10.80;;;0.88;;
44694;SDS011;32845;59.422;17.930;2023-02-01T14:30:41;1.83;;;0.60;;
44694;SDS011;32845;59.422;17.930;2023-02-01T14:35:19;7.93;;;0.63;;
44694;SDS011;32845;59.422;17.930;2023-02-01T14:39:59;1.63;;;0.50;;
44694;SDS011;32845;59.422;17.930;2023-02-01T14:44:33;6.50;;;0.75;;
44694;SDS011;32845;59.422;17.930;2023-02-01T14:49:05;3.33;;;0.80;;
44694;SDS011;32845;59.422;17.930;2023-02-01T14:53:36;6.38;;;0.70;;
44694;SDS011;32845;59.422;17.930;2023-02-01T14:58:13;1.67;;;0.65;;
44694;SDS011;32845;59.422;17.930;2023-02-01T15:08:11;2.85;;;0.90;;
44694;SDS011;32845;59.422;17.930;2023-02-01T15:12:47;2.88;;;1.05;;
44694;SDS011;32845;59.422;17.930;2023-02-01T15:17:24;3.40;;;0.85;;
44694;SDS011;32845;59.422;17.930;2023-02-01T15:21:56;2.10;;;0.88;;
44694;SDS011;32845;59.422;17.930;2023-02-01T15:26:28;2.03;;;0.90;;
44694;SDS011;32845;59.422;17.930;2023-02-01T15:31:02;2.92;;;0.52;;
44694;SDS011;32845;59.422;17.930;2023-02-01T15:44:44;2.58;;;1.10;;
44694;SDS011;32845;59.422;17.930;2023-02-01T15:49:20;5.32;;;1.45;;
44694;SDS011;32845;59.422;17.930;2023-02-01T15:54:03;5.15;;;1.55;;
44694;SDS011;32845;59.422;17.930;2023-02-01T15:58:36;5.32;;;1.50;;
44694;SDS011;32845;59.422;17.930;2023-02-01T16:17:16;8.55;;;2.05;;
44694;SDS011;32845;59.422;17.930;2023-02-01T16:21:47;2.97;;;1.48;;
44694;SDS011;32845;59.422;17.930;2023-02-01T16:26:18;7.72;;;1.80;;
44694;SDS011;32845;59.422;17.930;2023-02-01T16:30:49;7.18;;;1.90;;
44694;SDS011;32845;59.422;17.930;2023-02-01T16:35:35;6.28;;;2.00;;
44694;SDS011;32845;59.422;17.930;2023-02-01T16:40:12;4.47;;;1.58;;
44694;SDS011;32845;59.422;17.930;2023-02-01T16:44:47;6.35;;;1.88;;
44694;SDS011;32845;59.422;17.930;2023-02-01T16:49:22;3.15;;;1.42;;
44694;SDS011;32845;59.422;17.930;2023-02-01T16:53:54;7.10;;;1.88;;
44694;SDS011;32845;59.422;17.930;2023-02-01T16:58:25;5.88;;;1.90;;
44694;SDS011;32845;59.422;17.930;2023-02-01T17:02:57;10.82;;;2.15;;
44694;SDS011;32845;59.422;17.930;2023-02-01T17:07:27;8.07;;;2.63;;
44694;SDS011;32845;59.422;17.930;2023-02-01T17:11:59;6.15;;;2.20;;
44694;SDS011;32845;59.422;17.930;2023-02-01T17:16:30;6.30;;;2.08;;
44694;SDS011;32845;59.422;17.930;2023-02-01T17:21:02;8.90;;;2.03;;
44694;SDS011;32845;59.422;17.930;2023-02-01T17:25:34;5.47;;;1.92;;
44694;SDS011;32845;59.422;17.930;2023-02-01T17:30:06;13.85;;;1.90;;
44694;SDS011;32845;59.422;17.930;2023-02-01T17:34:39;4.82;;;1.10;;
44694;SDS011;32845;59.422;17.930;2023-02-01T17:39:10;6.57;;;1.15;;
44694;SDS011;32845;59.422;17.930;2023-02-01T17:44:01;2.35;;;1.27;;
44694;SDS011;32845;59.422;17.930;2023-02-01T17:48:32;3.75;;;1.15;;
44694;SDS011;32845;59.422;17.930;2023-02-01T17:53:03;3.45;;;1.40;;
44694;SDS011;32845;59.422;17.930;2023-02-01T17:57:38;6.07;;;1.67;;
44694;SDS011;32845;59.422;17.930;2023-02-01T18:02:19;4.70;;;1.48;;
44694;SDS011;32845;59.422;17.930;2023-02-01T18:06:51;5.78;;;1.50;;
44694;SDS011;32845;59.422;17.930;2023-02-01T18:11:22;5.95;;;1.98;;
44694;SDS011;32845;59.422;17.930;2023-02-01T18:15:54;5.40;;;1.42;;
44694;SDS011;32845;59.422;17.930;2023-02-01T18:20:25;2.72;;;1.48;;
44694;SDS011;32845;59.422;17.930;2023-02-01T18:24:57;11.48;;;2.03;;
44694;SDS011;32845;59.422;17.930;2023-02-01T18:29:27;3.60;;;1.50;;
44694;SDS011;32845;59.422;17.930;2023-02-01T18:33:58;4.13;;;1.75;;
44694;SDS011;32845;59.422;17.930;2023-02-01T18:38:29;2.85;;;0.93;;
44694;SDS011;32845;59.422;17.930;2023-02-01T18:43:00;2.47;;;1.35;;
44694;SDS011;32845;59.422;17.930;2023-02-01T18:47:32;4.00;;;1.30;;
44694;SDS011;32845;59.422;17.930;2023-02-01T18:52:03;5.30;;;2.08;;
44694;SDS011;32845;59.422;17.930;2023-02-01T18:56:34;4.88;;;1.10;;
44694;SDS011;32845;59.422;17.930;2023-02-01T19:01:06;5.75;;;1.42;;
44694;SDS011;32845;59.422;17.930;2023-02-01T19:05:39;2.53;;;1.02;;
44694;SDS011;32845;59.422;17.930;2023-02-01T19:10:12;3.42;;;1.70;;
44694;SDS011;32845;59.422;17.930;2023-02-01T19:14:44;6.50;;;1.73;;
44694;SDS011;32845;59.422;17.930;2023-02-01T19:19:15;5.10;;;2.13;;
44694;SDS011;32845;59.422;17.930;2023-02-01T19:23:46;7.43;;;2.33;;
44694;SDS011;32845;59.422;17.930;2023-02-01T19:28:16;3.45;;;1.70;;
44694;SDS011;32845;59.422;17.930;2023-02-01T19:32:47;6.63;;;1.60;;
44694;SDS011;32845;59.422;17.930;2023-02-01T19:37:18;3.85;;;1.65;;
44694;SDS011;32845;59.422;17.930;2023-02-01T19:41:49;5.47;;;1.60;;
44694;SDS011;32845;59.422;17.930;2023-02-01T19:46:20;3.95;;;1.70;;
44694;SDS011;32845;59.422;17.930;2023-02-01T19:50:51;6.05;;;1.60;;
44694;SDS011;32845;59.422;17.930;2023-02-01T19:55:23;3.05;;;1.52;;
44694;SDS011;32845;59.422;17.930;2023-02-01T19:59:53;5.72;;;1.27;;
44694;SDS011;32845;59.422;17.930;2023-02-01T20:04:24;4.60;;;1.40;;
44694;SDS011;32845;59.422;17.930;2023-02-01T20:08:56;7.78;;;2.17;;
44694;SDS011;32845;59.422;17.930;2023-02-01T20:13:27;4.43;;;1.20;;
44694;SDS011;32845;59.422;17.930;2023-02-01T20:17:58;3.45;;;1.50;;
44694;SDS011;32845;59.422;17.930;2023-02-01T20:22:29;4.30;;;1.77;;
44694;SDS011;32845;59.422;17.930;2023-02-01T20:27:00;5.38;;;1.42;;
44694;SDS011;32845;59.422;17.930;2023-02-01T20:31:30;4.35;;;1.25;;
44694;SDS011;32845;59.422;17.930;2023-02-01T20:36:03;6.47;;;1.50;;
44694;SDS011;32845;59.422;17.930;2023-02-01T20:40:35;4.95;;;1.30;;
44694;SDS011;32845;59.422;17.930;2023-02-01T20:45:06;4.65;;;1.40;;
44694;SDS011;32845;59.422;17.930;2023-02-01T20:49:38;2.92;;;1.20;;
44694;SDS011;32845;59.422;17.930;2023-02-01T20:54:09;6.72;;;1.13;;
44694;SDS011;32845;59.422;17.930;2023-02-01T20:58:40;4.15;;;1.30;;
44694;SDS011;32845;59.422;17.930;2023-02-01T21:03:12;5.45;;;1.20;;
44694;SDS011;32845;59.422;17.930;2023-02-01T21:07:44;6.22;;;1.30;;
44694;SDS011;32845;59.422;17.930;2023-02-01T21:12:14;3.92;;;1.30;;
44694;SDS011;32845;59.422;17.930;2023-02-01T21:16:46;3.83;;;1.50;;
44694;SDS011;32845;59.422;17.930;2023-02-01T21:21:17;3.90;;;1.17;;
44694;SDS011;32845;59.422;17.930;2023-02-01T21:25:48;6.43;;;1.33;;
44694;SDS011;32845;59.422;17.930;2023-02-01T21:30:19;2.80;;;1.10;;
44694;SDS011;32845;59.422;17.930;2023-02-01T21:34:49;4.45;;;1.33;;
44694;SDS011;32845;59.422;17.930;2023-02-01T21:39:21;3.00;;;0.80;;
44694;SDS011;32845;59.422;17.930;2023-02-01T21:43:52;4.32;;;1.08;;
44694;SDS011;32845;59.422;17.930;2023-02-01T21:48:22;3.00;;;0.95;;
44694;SDS011;32845;59.422;17.930;2023-02-01T21:52:53;2.88;;;0.80;;
44694;SDS011;32845;59.422;17.930;2023-02-01T21:57:25;6.72;;;1.10;;
44694;SDS011;32845;59.422;17.930;2023-02-01T22:01:56;4.50;;;1.05;;
44694;SDS011;32845;59.422;17.930;2023-02-01T22:06:28;1.08;;;0.60;;
44694;SDS011;32845;59.422;17.930;2023-02-01T22:11:00;2.95;;;0.82;;
44694;SDS011;32845;59.422;17.930;2023-02-01T22:15:31;2.25;;;0.90;;
44694;SDS011;32845;59.422;17.930;2023-02-01T22:20:02;2.70;;;0.70;;
44694;SDS011;32845;59.422;17.930;2023-02-01T22:24:34;4.22;;;0.70;;
44694;SDS011;32845;59.422;17.930;2023-02-01T22:29:05;2.17;;;0.43;;
44694;SDS011;32845;59.422;17.930;2023-02-01T22:33:36;4.13;;;0.70;;
44694;SDS011;32845;59.422;17.930;2023-02-01T22:38:07;5.20;;;0.65;;
44694;SDS011;32845;59.422;17.930;2023-02-01T22:42:38;3.60;;;0.50;;
44694;SDS011;32845;59.422;17.930;2023-02-01T22:47:09;0.90;;;0.47;;
44694;SDS011;32845;59.422;17.930;2023-02-01T22:51:40;3.65;;;0.57;;
44694;SDS011;32845;59.422;17.930;2023-02-01T22:56:11;0.85;;;0.50;;
44694;SDS011;32845;59.422;17.930;2023-02-01T23:00:43;2.95;;;0.70;;
44694;SDS011;32845;59.422;17.930;2023-02-01T23:05:14;1.77;;;0.50;;
44694;SDS011;32845;59.422;17.930;2023-02-01T23:09:45;1.10;;;0.30;;
44694;SDS011;32845;59.422;17.930;2023-02-01T23:14:16;3.88;;;0.40;;
44694;SDS011;32845;59.422;17.930;2023-02-01T23:18:47;2.65;;;0.43;;
44694;SDS011;32845;59.422;17.930;2023-02-01T23:23:18;2.88;;;0.43;;
44694;SDS011;32845;59.422;17.930;2023-02-01T23:27:49;2.65;;;0.40;;
44694;SDS011;32845;59.422;17.930;2023-02-01T23:32:19;4.22;;;0.63;;
44694;SDS011;32845;59.422;17.930;2023-02-01T23:36:50;2.42;;;0.50;;
44694;SDS011;32845;59.422;17.930;2023-02-01T23:41:21;4.55;;;0.40;;
44694;SDS011;32845;59.422;17.930;2023-02-01T23:45:56;0.32;;;0.20;;
44694;SDS011;32845;59.422;17.930;2023-02-01T23:50:27;1.15;;;0.50;;
44694;SDS011;32845;59.422;17.930;2023-02-01T23:54:58;1.10;;;0.30;;
44694;SDS011;32845;59.422;17.930;2023-02-01T23:59:29;0.45;;;0.30;;
